createdAt,value
2022-08-05T00:02:23.535Z,3.90
2022-08-05T00:04:55.306Z,2.90
2022-08-05T00:07:58.775Z,4.30
2022-08-05T00:10:12.315Z,2.80
2022-08-05T00:12:55.945Z,3.15
2022-08-05T00:15:56.051Z,3.03
2022-08-05T00:18:21.575Z,3.70
2022-08-05T00:20:52.627Z,2.50
2022-08-05T00:23:30.832Z,3.53
2022-08-05T00:26:09.752Z,2.40
2022-08-05T00:28:37.990Z,4.35
2022-08-05T00:31:08.526Z,3.80
2022-08-05T00:34:56.127Z,3.45
2022-08-05T00:37:12.593Z,3.33
2022-08-05T00:39:16.203Z,2.67
2022-08-05T00:41:54.977Z,2.45
2022-08-05T00:44:30.665Z,3.50
2022-08-05T00:47:04.227Z,3.17
2022-08-05T00:49:44.589Z,3.85
2022-08-05T00:52:28.396Z,2.58
2022-08-05T00:54:57.290Z,3.47
2022-08-05T00:57:38.433Z,3.40
2022-08-05T01:00:15.033Z,3.13
2022-08-05T01:02:45.152Z,2.85
2022-08-05T01:05:13.666Z,3.67
2022-08-05T01:08:41.991Z,2.92
2022-08-05T01:10:39.367Z,3.40
2022-08-05T01:13:22.272Z,2.70
2022-08-05T01:16:01.733Z,4.97
2022-08-05T01:18:35.115Z,3.55
2022-08-05T01:21:12.317Z,3.60
2022-08-05T01:24:13.235Z,2.63
2022-08-05T01:26:57.610Z,3.53
2022-08-05T01:29:32.877Z,3.35
2022-08-05T01:32:12.435Z,3.20
2022-08-05T01:34:55.703Z,3.78
2022-08-05T01:37:31.094Z,3.70
2022-08-05T01:40:03.080Z,4.07
2022-08-05T01:42:33.925Z,5.30
2022-08-05T01:45:04.353Z,3.78
2022-08-05T01:47:39.263Z,4.38
2022-08-05T01:50:15.732Z,3.80
2022-08-05T01:52:49.697Z,4.30
2022-08-05T01:55:21.723Z,4.57
2022-08-05T01:58:12.770Z,4.10
2022-08-05T02:00:50.166Z,4.65
2022-08-05T02:03:24.237Z,3.85
2022-08-05T02:06:03.791Z,5.50
2022-08-05T02:08:57.972Z,3.72
2022-08-05T02:11:33.494Z,3.28
2022-08-05T02:14:06.437Z,4.35
2022-08-05T02:16:40.683Z,4.22
2022-08-05T02:19:18.958Z,5.53
2022-08-05T02:21:54.514Z,4.60
2022-08-05T02:24:28.031Z,5.68
2022-08-05T02:27:01.014Z,5.35
2022-08-05T02:29:58.973Z,5.18
2022-08-05T02:32:31.837Z,5.55
2022-08-05T02:35:02.158Z,6.25
2022-08-05T02:37:47.859Z,5.50
2022-08-05T02:40:24.276Z,7.05
2022-08-05T02:42:55.278Z,7.47
2022-08-05T02:45:25.231Z,5.68
2022-08-05T02:48:11.985Z,6.43
2022-08-05T02:50:43.944Z,6.18
2022-08-05T02:53:18.771Z,6.45
2022-08-05T02:55:59.813Z,7.03
2022-08-05T02:58:30.312Z,7.68
2022-08-05T03:01:02.226Z,8.70
2022-08-05T03:04:03.266Z,9.90
2022-08-05T03:06:57.091Z,8.20
2022-08-05T03:09:15.910Z,9.18
2022-08-05T03:11:58.067Z,9.95
2022-08-05T03:14:26.794Z,9.25
2022-08-05T03:16:54.788Z,9.68
2022-08-05T03:19:33.709Z,9.25
2022-08-05T03:22:04.679Z,7.38
2022-08-05T03:24:33.784Z,7.05
2022-08-05T03:27:03.166Z,5.93
2022-08-05T03:29:45.407Z,7.05
2022-08-05T03:32:30.972Z,6.13
2022-08-05T03:35:01.234Z,5.53
2022-08-05T03:37:45.675Z,5.30
2022-08-05T03:40:15.527Z,6.35
2022-08-05T03:42:53.147Z,5.60
2022-08-05T03:45:23.395Z,5.32
2022-08-05T03:47:56.767Z,6.03
2022-08-05T03:50:30.126Z,6.00
2022-08-05T03:55:49.775Z,5.15
2022-08-05T03:56:11.536Z,5.03
2022-08-05T03:58:43.738Z,5.43
2022-08-05T04:01:15.016Z,5.90
2022-08-05T04:04:09.409Z,6.15
2022-08-05T04:06:36.021Z,4.95
2022-08-05T04:09:07.044Z,4.85
2022-08-05T04:11:50.510Z,6.25
2022-08-05T04:14:30.296Z,5.35
2022-08-05T04:17:00.822Z,5.72
2022-08-05T04:19:31.381Z,6.43
2022-08-05T04:22:08.434Z,7.68
2022-08-05T04:24:44.270Z,6.50
2022-08-05T04:27:13.873Z,5.88
2022-08-05T04:29:43.715Z,6.32
2022-08-05T04:32:11.708Z,5.35
2022-08-05T04:34:43.291Z,5.47
2022-08-05T04:37:13.050Z,6.23
2022-08-05T04:39:41.190Z,5.00
2022-08-05T04:42:10.103Z,5.40
2022-08-05T04:44:39.386Z,5.20
2022-08-05T04:47:09.933Z,5.70
2022-08-05T04:50:01.343Z,6.07
2022-08-05T04:52:29.118Z,6.15
2022-08-05T04:55:13.922Z,6.50
2022-08-05T04:57:47.989Z,7.13
2022-08-05T05:00:23.655Z,6.50
2022-08-05T05:02:52.699Z,5.82
2022-08-05T05:05:28.142Z,7.68
2022-08-05T05:08:02.546Z,6.85
2022-08-05T05:10:33.336Z,6.55
2022-08-05T05:13:03.767Z,7.10
2022-08-05T05:16:00.479Z,6.00
2022-08-05T05:18:31.123Z,7.07
2022-08-05T05:21:01.675Z,7.63
2022-08-05T05:24:01.876Z,6.90
2022-08-05T05:26:19.205Z,7.68
2022-08-05T05:28:47.210Z,11.30
2022-08-05T05:31:15.271Z,9.07
2022-08-05T05:33:59.086Z,8.90
2022-08-05T05:36:30.150Z,9.52
2022-08-05T05:38:59.814Z,8.13
2022-08-05T05:41:40.866Z,9.18
2022-08-05T05:44:35.848Z,10.63
2022-08-05T05:47:04.480Z,12.02
2022-08-05T05:49:33.172Z,10.38
2022-08-05T05:52:06.082Z,11.30
2022-08-05T05:54:50.558Z,10.65
2022-08-05T05:57:19.851Z,10.98
2022-08-05T05:59:48.964Z,12.50
2022-08-05T06:02:37.473Z,12.90
2022-08-05T06:05:10.492Z,12.40
2022-08-05T06:07:57.864Z,14.35
2022-08-05T06:10:36.411Z,13.13
2022-08-05T06:13:06.111Z,12.80
2022-08-05T06:16:28.287Z,11.82
2022-08-05T06:18:22.086Z,12.23
2022-08-05T06:20:59.484Z,11.15
2022-08-05T06:23:27.510Z,12.80
2022-08-05T06:26:21.669Z,10.02
2022-08-05T06:28:52.098Z,8.50
2022-08-05T06:31:22.124Z,10.68
2022-08-05T06:34:08.062Z,10.32
2022-08-05T06:36:37.453Z,10.82
2022-08-05T06:39:26.951Z,12.55
2022-08-05T06:41:58.637Z,13.00
2022-08-05T06:44:27.379Z,11.93
2022-08-05T06:46:55.842Z,12.45
2022-08-05T06:50:00.297Z,11.85
2022-08-05T06:52:36.978Z,13.02
2022-08-05T06:55:00.717Z,14.75
2022-08-05T06:58:02.965Z,18.08
2022-08-05T07:00:24.455Z,21.23
2022-08-05T07:02:54.229Z,21.77
2022-08-05T07:05:27.651Z,22.05
2022-08-05T07:08:05.567Z,24.27
2022-08-05T07:10:33.609Z,23.25
2022-08-05T07:13:57.225Z,22.33
2022-08-05T07:18:00.303Z,22.27
2022-08-05T07:19:16.078Z,27.70
2022-08-05T07:22:02.786Z,25.08
2022-08-05T07:24:30.711Z,18.95
2022-08-05T07:26:59.522Z,16.60
2022-08-05T07:30:25.452Z,14.73
2022-08-05T07:32:26.306Z,11.93
2022-08-05T07:34:58.007Z,11.20
2022-08-05T07:37:26.658Z,10.55
2022-08-05T07:40:26.775Z,8.50
2022-08-05T07:42:52.657Z,9.68
2022-08-05T07:45:56.537Z,10.85
2022-08-05T07:48:10.130Z,10.90
2022-08-05T07:50:38.296Z,10.43
2022-08-05T07:53:07.089Z,10.25
2022-08-05T07:56:04.664Z,9.43
2022-08-05T07:58:57.786Z,9.25
2022-08-05T08:01:12.563Z,9.35
2022-08-05T08:03:44.713Z,9.10
2022-08-05T08:08:40.865Z,6.53
2022-08-05T08:11:09.110Z,7.32
2022-08-05T08:14:00.426Z,5.30
2022-08-05T08:16:49.866Z,5.30
2022-08-05T08:20:21.306Z,5.85
2022-08-05T08:22:07.221Z,5.93
2022-08-05T08:24:51.498Z,5.70
2022-08-05T08:27:20.199Z,4.53
2022-08-05T08:30:06.688Z,5.00
2022-08-05T08:32:41.787Z,5.65
2022-08-05T08:35:13.467Z,4.68
2022-08-05T08:37:44.963Z,5.55
2022-08-05T08:40:14.060Z,5.18
2022-08-05T08:42:50.351Z,4.55
2022-08-05T08:45:27.076Z,5.20
2022-08-05T08:48:07.475Z,5.55
2022-08-05T08:51:22.572Z,4.63
2022-08-05T08:53:37.374Z,4.10
2022-08-05T08:56:06.720Z,6.32
2022-08-05T08:58:43.524Z,4.60
2022-08-05T09:01:18.085Z,4.70
2022-08-05T09:03:54.316Z,4.22
2022-08-05T09:06:29.471Z,5.15
2022-08-05T09:09:00.207Z,5.78
2022-08-05T09:11:50.806Z,4.20
2022-08-05T09:14:57.406Z,4.07
2022-08-05T09:17:09.522Z,6.22
2022-08-05T09:20:02.658Z,5.55
2022-08-05T09:23:18.470Z,4.68
2022-08-05T09:26:01.065Z,4.35
2022-08-05T09:28:33.822Z,4.93
2022-08-05T09:31:44.159Z,3.83
2022-08-05T09:33:55.241Z,3.72
2022-08-05T09:36:38.582Z,3.80
2022-08-05T09:39:41.167Z,5.47
2022-08-05T09:42:17.485Z,4.95
2022-08-05T09:44:56.031Z,4.28
2022-08-05T09:47:48.086Z,3.20
2022-08-05T09:50:38.000Z,4.40
2022-08-05T09:53:08.902Z,5.32
2022-08-05T09:55:56.507Z,4.72
2022-08-05T09:58:29.129Z,4.57
2022-08-05T10:01:01.963Z,4.53
2022-08-05T10:03:58.818Z,5.05
2022-08-05T10:06:28.850Z,3.95
2022-08-05T10:09:25.077Z,5.30
2022-08-05T10:11:56.509Z,3.78
2022-08-05T10:14:28.537Z,4.30
2022-08-05T10:17:37.268Z,4.13
2022-08-05T10:20:09.932Z,3.70
2022-08-05T10:22:42.872Z,5.13
2022-08-05T10:25:18.875Z,3.50
2022-08-05T10:28:12.698Z,4.78
2022-08-05T10:32:47.266Z,3.92
2022-08-05T10:33:28.813Z,3.55
2022-08-05T10:35:59.190Z,4.83
2022-08-05T10:38:29.714Z,6.43
2022-08-05T10:41:08.945Z,4.13
2022-08-05T10:43:48.884Z,3.30
2022-08-05T10:46:19.219Z,2.83
2022-08-05T10:49:01.466Z,4.70
2022-08-05T10:51:53.212Z,3.80
2022-08-05T10:54:56.925Z,2.38
2022-08-05T10:57:32.312Z,3.53
2022-08-05T11:00:20.189Z,4.15
2022-08-05T11:03:25.730Z,3.13
2022-08-05T11:06:15.714Z,3.92
2022-08-05T11:09:16.687Z,3.15
2022-08-05T11:11:53.452Z,4.43
2022-08-05T11:14:57.861Z,3.10
2022-08-05T11:17:59.993Z,3.85
2022-08-05T11:20:41.484Z,4.22
2022-08-05T11:24:04.359Z,5.22
2022-08-05T11:26:29.110Z,3.03
2022-08-05T11:29:12.245Z,3.33
2022-08-05T11:31:56.560Z,3.80
2022-08-05T11:34:39.517Z,4.55
2022-08-05T11:38:28.356Z,3.80
2022-08-05T11:40:02.741Z,3.00
2022-08-05T11:42:40.317Z,4.22
2022-08-05T11:45:23.526Z,3.65
2022-08-05T11:47:59.862Z,3.33
2022-08-05T11:50:29.224Z,4.10
2022-08-05T11:52:58.291Z,4.13
2022-08-05T11:55:31.637Z,3.03
2022-08-05T11:58:08.436Z,4.07
2022-08-05T12:00:41.394Z,5.07
2022-08-05T12:03:28.561Z,4.03
2022-08-05T12:06:01.483Z,4.00
2022-08-05T12:08:32.678Z,4.50
2022-08-05T12:11:03.416Z,4.75
2022-08-05T12:13:49.523Z,2.92
2022-08-05T12:16:26.948Z,2.85
2022-08-05T12:18:57.113Z,4.65
2022-08-05T12:21:30.359Z,4.03
2022-08-05T12:24:06.782Z,4.35
2022-08-05T12:26:36.529Z,4.57
2022-08-05T12:29:09.892Z,5.13
2022-08-05T12:31:52.977Z,4.90
2022-08-05T12:34:28.473Z,5.53
2022-08-05T12:36:59.053Z,5.63
2022-08-05T12:39:34.651Z,5.38
2022-08-05T12:42:14.988Z,4.32
2022-08-05T12:44:44.527Z,3.75
2022-08-05T12:47:13.294Z,4.35
2022-08-05T12:50:03.565Z,5.22
2022-08-05T12:52:42.181Z,4.45
2022-08-05T12:55:23.765Z,4.93
2022-08-05T12:58:48.495Z,5.22
2022-08-05T13:02:04.443Z,5.13
2022-08-05T13:03:41.431Z,5.13
2022-08-05T13:06:17.202Z,4.68
2022-08-05T13:08:52.227Z,5.05
2022-08-05T13:11:59.655Z,5.22
2022-08-05T13:14:25.052Z,4.72
2022-08-05T13:17:10.243Z,4.55
2022-08-05T13:19:51.710Z,5.93
2022-08-05T13:22:28.048Z,4.22
2022-08-05T13:25:00.774Z,4.90
2022-08-05T13:27:38.569Z,4.10
2022-08-05T13:30:36.836Z,3.78
2022-08-05T13:33:01.674Z,3.83
2022-08-05T13:35:43.225Z,4.18
2022-08-05T13:38:28.017Z,2.75
2022-08-05T13:41:03.315Z,3.53
2022-08-05T13:43:44.590Z,2.35
2022-08-05T13:46:16.129Z,2.13
2022-08-05T13:49:00.292Z,2.10
2022-08-05T13:51:36.510Z,3.58
2022-08-05T13:54:11.570Z,3.42
2022-08-05T13:56:45.398Z,2.85
2022-08-05T13:59:21.116Z,2.90
2022-08-05T14:01:57.489Z,2.53
2022-08-05T14:04:49.586Z,2.35
2022-08-05T14:07:56.240Z,2.83
2022-08-05T14:10:11.997Z,2.00
2022-08-05T14:12:42.623Z,1.75
2022-08-05T14:16:04.719Z,2.47
2022-08-05T14:18:00.940Z,4.18
2022-08-05T14:20:30.725Z,3.63
2022-08-05T14:22:58.757Z,3.53
2022-08-05T14:25:30.279Z,3.05
2022-08-05T14:27:58.801Z,1.80
2022-08-05T14:30:27.885Z,2.83
2022-08-05T14:32:57.062Z,3.25
2022-08-05T14:35:37.256Z,1.67
2022-08-05T14:38:32.315Z,4.03
2022-08-05T14:41:06.729Z,1.65
2022-08-05T14:43:57.456Z,3.33
2022-08-05T14:46:29.150Z,2.10
2022-08-05T14:49:03.507Z,2.00
2022-08-05T14:51:37.585Z,3.38
2022-08-05T14:54:26.236Z,2.63
2022-08-05T14:56:56.058Z,2.30
2022-08-05T14:59:24.172Z,2.80
2022-08-05T15:01:53.800Z,3.20
2022-08-05T15:04:22.893Z,2.50
2022-08-05T15:06:51.914Z,1.92
2022-08-05T15:09:52.656Z,2.67
2022-08-05T15:12:16.757Z,2.17
2022-08-05T15:14:50.127Z,3.45
2022-08-05T15:17:44.813Z,1.48
2022-08-05T15:20:15.575Z,1.85
2022-08-05T15:22:46.791Z,2.08
2022-08-05T15:25:23.664Z,1.40
2022-08-05T15:28:13.391Z,3.22
2022-08-05T15:30:45.518Z,2.83
2022-08-05T15:33:56.574Z,1.23
2022-08-05T15:36:04.659Z,2.53
2022-08-05T15:38:40.938Z,0.80
2022-08-05T15:41:23.160Z,1.77
2022-08-05T15:43:54.479Z,1.30
2022-08-05T15:46:24.313Z,1.30
2022-08-05T15:48:58.853Z,1.50
2022-08-05T15:52:13.240Z,1.75
2022-08-05T15:54:18.219Z,2.25
2022-08-05T15:56:46.145Z,2.40
2022-08-05T15:59:22.301Z,1.40
2022-08-05T16:01:53.005Z,1.80
2022-08-05T16:04:25.681Z,1.75
2022-08-05T16:06:54.236Z,1.00
2022-08-05T16:09:24.454Z,2.22
2022-08-05T16:11:53.731Z,1.50
2022-08-05T16:14:23.456Z,2.00
2022-08-05T16:16:51.594Z,2.20
2022-08-05T16:20:03.640Z,1.65
2022-08-05T16:22:10.722Z,1.92
2022-08-05T16:24:41.380Z,2.53
2022-08-05T16:27:19.432Z,2.45
2022-08-05T16:30:23.185Z,1.65
2022-08-05T16:32:54.742Z,2.70
2022-08-05T16:35:28.585Z,1.75
2022-08-05T16:38:16.456Z,2.38
2022-08-05T16:40:55.742Z,2.15
2022-08-05T16:43:30.356Z,1.83
2022-08-05T16:46:12.945Z,2.33
2022-08-05T16:48:51.394Z,1.55
2022-08-05T16:51:19.437Z,1.48
2022-08-05T16:54:04.852Z,2.33
2022-08-05T16:56:37.160Z,3.03
2022-08-05T16:59:10.307Z,0.93
2022-08-05T17:01:54.805Z,2.35
2022-08-05T17:04:26.563Z,1.55
2022-08-05T17:07:00.145Z,1.40
2022-08-05T17:09:29.886Z,1.98
2022-08-05T17:12:00.045Z,1.23
2022-08-05T17:14:36.987Z,1.33
2022-08-05T17:17:09.333Z,1.48
2022-08-05T17:19:47.885Z,0.75
2022-08-05T17:22:24.967Z,1.45
2022-08-05T17:24:57.573Z,1.67
2022-08-05T17:27:33.627Z,0.93
2022-08-05T17:30:03.108Z,1.63
2022-08-05T17:32:34.622Z,1.70
2022-08-05T17:37:41.806Z,1.92
2022-08-05T17:40:17.248Z,1.02
2022-08-05T17:42:51.098Z,1.30
2022-08-05T17:45:22.149Z,1.88
2022-08-05T17:47:55.824Z,1.30
2022-08-05T17:50:28.545Z,1.65
2022-08-05T17:53:02.282Z,1.27
2022-08-05T17:55:38.183Z,2.30
2022-08-05T17:58:12.377Z,0.93
2022-08-05T18:00:45.283Z,1.20
2022-08-05T18:06:12.152Z,1.20
2022-08-05T18:08:45.481Z,1.90
2022-08-05T18:11:24.369Z,1.23
2022-08-05T18:14:04.272Z,2.85
2022-08-05T18:16:35.105Z,0.98
2022-08-05T18:19:16.498Z,1.85
2022-08-05T18:22:08.775Z,1.45
2022-08-05T18:24:32.669Z,1.05
2022-08-05T18:27:01.099Z,0.85
2022-08-05T18:29:40.789Z,1.23
2022-08-05T18:32:12.917Z,1.58
2022-08-05T18:34:43.008Z,1.33
2022-08-05T18:37:12.693Z,1.42
2022-08-05T18:40:34.426Z,2.00
2022-08-05T18:42:47.609Z,1.92
2022-08-05T18:45:15.562Z,1.52
2022-08-05T18:47:43.812Z,2.17
2022-08-05T18:50:42.232Z,1.15
2022-08-05T18:53:20.852Z,1.23
2022-08-05T18:55:53.203Z,2.17
2022-08-05T18:58:28.657Z,2.22
2022-08-05T19:00:58.522Z,1.65
2022-08-05T19:03:55.591Z,1.83
2022-08-05T19:06:21.911Z,2.33
2022-08-05T19:08:50.324Z,2.08
2022-08-05T19:11:27.985Z,1.77
2022-08-05T19:14:00.859Z,2.13
2022-08-05T19:16:33.031Z,1.95
2022-08-05T19:19:05.064Z,2.28
2022-08-05T19:21:34.991Z,2.17
2022-08-05T19:24:12.655Z,1.80
2022-08-05T19:26:54.889Z,1.67
2022-08-05T19:29:35.464Z,2.65
2022-08-05T19:32:04.396Z,1.27
2022-08-05T19:34:32.716Z,1.77
2022-08-05T19:37:02.110Z,1.67
2022-08-05T19:39:31.863Z,2.20
2022-08-05T19:42:07.387Z,1.73
2022-08-05T19:44:44.530Z,1.33
2022-08-05T19:47:16.148Z,1.67
2022-08-05T19:49:44.621Z,1.33
2022-08-05T19:52:31.418Z,1.20
2022-08-05T19:55:06.790Z,3.35
2022-08-05T19:57:47.401Z,1.83
2022-08-05T20:00:23.862Z,1.70
2022-08-05T20:02:52.572Z,1.35
2022-08-05T20:05:24.736Z,2.72
2022-08-05T20:07:59.097Z,1.90
2022-08-05T20:10:27.359Z,2.60
2022-08-05T20:12:56.978Z,1.90
2022-08-05T20:15:51.944Z,1.70
2022-08-05T20:18:33.767Z,1.95
2022-08-05T20:21:01.210Z,1.55
2022-08-05T20:23:44.511Z,2.22
2022-08-05T20:26:18.457Z,2.88
2022-08-05T20:28:48.723Z,1.90
2022-08-05T20:31:17.261Z,2.45
2022-08-05T20:33:45.743Z,2.03
2022-08-05T20:36:17.857Z,2.92
2022-08-05T20:38:53.749Z,1.73
2022-08-05T20:41:27.424Z,2.72
2022-08-05T20:44:29.841Z,1.60
2022-08-05T20:46:59.717Z,2.35
2022-08-05T20:49:27.759Z,2.05
2022-08-05T20:51:58.040Z,3.92
2022-08-05T20:54:43.308Z,1.38
2022-08-05T20:57:24.837Z,1.42
2022-08-05T21:00:21.177Z,2.13
2022-08-05T21:03:01.214Z,2.85
2022-08-05T21:05:48.098Z,1.92
2022-08-05T21:08:17.769Z,2.30
2022-08-05T21:10:49.149Z,1.33
2022-08-05T21:13:26.515Z,4.53
2022-08-05T21:16:06.279Z,2.17
2022-08-05T21:18:34.220Z,1.65
2022-08-05T21:21:04.000Z,1.38
2022-08-05T21:23:37.296Z,2.90
2022-08-05T21:26:14.474Z,2.35
2022-08-05T21:28:47.949Z,2.38
2022-08-05T21:31:19.203Z,2.28
2022-08-05T21:33:49.438Z,1.83
2022-08-05T21:36:27.593Z,2.70
2022-08-05T21:38:58.614Z,2.72
2022-08-05T21:41:33.796Z,2.15
2022-08-05T21:44:04.152Z,2.40
2022-08-05T21:46:34.666Z,2.25
2022-08-05T21:49:04.750Z,2.88
2022-08-05T21:52:22.580Z,1.52
2022-08-05T21:54:27.817Z,2.40
2022-08-05T22:00:03.932Z,2.20
2022-08-05T22:02:41.626Z,2.80
2022-08-05T22:05:11.464Z,2.58
2022-08-05T22:07:59.259Z,1.40
2022-08-05T22:10:29.210Z,2.50
2022-08-05T22:13:58.794Z,2.78
2022-08-05T22:16:02.532Z,1.83
2022-08-05T22:18:35.780Z,1.35
2022-08-05T22:21:04.679Z,2.13
2022-08-05T22:24:03.062Z,2.15
2022-08-05T22:26:54.050Z,1.73
2022-08-05T22:29:26.324Z,1.70
2022-08-05T22:32:02.650Z,2.53
2022-08-05T22:34:31.997Z,1.98
2022-08-05T22:37:00.436Z,1.48
2022-08-05T22:39:33.362Z,1.77
2022-08-05T22:42:11.043Z,3.38
2022-08-05T22:44:53.522Z,2.35
2022-08-05T22:47:29.285Z,1.83
2022-08-05T22:50:19.259Z,2.35
2022-08-05T22:52:48.080Z,2.55
2022-08-05T22:55:18.886Z,2.15
2022-08-05T22:57:49.023Z,1.55
2022-08-05T23:00:20.707Z,3.25
2022-08-05T23:02:49.982Z,1.65
2022-08-05T23:05:18.706Z,2.05
2022-08-05T23:07:49.607Z,2.20
2022-08-05T23:10:20.286Z,1.47
2022-08-05T23:12:51.471Z,3.53
2022-08-05T23:15:26.719Z,2.08
2022-08-05T23:18:00.434Z,1.58
2022-08-05T23:20:29.987Z,4.28
2022-08-05T23:22:58.629Z,2.55
2022-08-05T23:25:54.867Z,2.67
2022-08-05T23:28:15.909Z,1.63
2022-08-05T23:30:53.234Z,1.92
2022-08-05T23:34:02.903Z,1.95
2022-08-05T23:36:10.811Z,3.13
2022-08-05T23:38:42.072Z,2.13
2022-08-05T23:41:11.061Z,2.05
2022-08-05T23:44:04.427Z,1.80
2022-08-05T23:46:28.812Z,2.90
2022-08-05T23:49:00.440Z,2.95
2022-08-05T23:51:54.812Z,2.90
2022-08-05T23:54:25.870Z,2.58
2022-08-05T23:57:03.509Z,3.08
